createdAt,value
2017-12-31T00:00:21.887Z,9.32
2017-12-31T00:01:21.880Z,9.23
2017-12-31T00:02:21.876Z,9.29
2017-12-31T00:03:21.878Z,9.28
2017-12-31T00:04:21.872Z,9.31
2017-12-31T00:05:21.866Z,9.35
2017-12-31T00:06:21.871Z,9.33
2017-12-31T00:07:21.863Z,9.31
2017-12-31T00:08:21.863Z,9.31
2017-12-31T00:09:21.858Z,9.26
2017-12-31T00:10:21.854Z,9.14
2017-12-31T00:11:21.861Z,9.13
2017-12-31T00:12:21.849Z,9.15
2017-12-31T00:13:21.847Z,9.04
2017-12-31T00:14:21.843Z,8.99
2017-12-31T00:15:21.842Z,9.04
2017-12-31T00:16:21.839Z,9.01
2017-12-31T00:17:21.839Z,8.96
2017-12-31T00:18:21.830Z,8.96
2017-12-31T00:19:21.832Z,8.95
2017-12-31T00:20:21.830Z,8.95
2017-12-31T00:21:21.826Z,9.02
2017-12-31T00:22:21.825Z,8.92
2017-12-31T00:23:21.828Z,8.94
2017-12-31T00:24:21.809Z,8.96
2017-12-31T00:25:21.811Z,8.84
2017-12-31T00:26:21.802Z,8.84
2017-12-31T00:27:21.805Z,8.96
2017-12-31T00:28:21.804Z,8.91
2017-12-31T00:29:21.798Z,8.94
2017-12-31T00:30:21.798Z,8.96
2017-12-31T00:31:21.795Z,9.02
2017-12-31T00:32:21.793Z,9.13
2017-12-31T00:33:21.787Z,9.15
2017-12-31T00:34:21.789Z,9.14
2017-12-31T00:35:21.783Z,9.14
2017-12-31T00:36:21.781Z,9.13
2017-12-31T00:37:21.774Z,9.11
2017-12-31T00:38:21.771Z,9.11
2017-12-31T00:39:21.779Z,8.99
2017-12-31T00:40:21.768Z,8.95
2017-12-31T00:41:21.764Z,9.01
2017-12-31T00:42:21.761Z,9.01
2017-12-31T00:43:21.761Z,8.99
2017-12-31T00:44:21.757Z,9.01
2017-12-31T00:45:21.755Z,9.04
2017-12-31T00:46:21.744Z,9.08
2017-12-31T00:47:21.747Z,9.02
2017-12-31T00:48:21.744Z,9.02
2017-12-31T00:49:21.736Z,9.05
2017-12-31T00:50:21.737Z,9.08
2017-12-31T00:51:21.733Z,9.05
2017-12-31T00:52:21.732Z,9.01
2017-12-31T00:53:21.728Z,8.94
2017-12-31T00:54:21.725Z,8.95
2017-12-31T00:55:21.722Z,9.01
2017-12-31T00:56:21.721Z,8.95
2017-12-31T00:57:21.717Z,8.98
2017-12-31T00:58:21.710Z,8.98
2017-12-31T00:59:21.710Z,8.99
2017-12-31T01:00:21.708Z,9.01
2017-12-31T01:01:21.704Z,9.01
2017-12-31T01:02:21.701Z,8.96
2017-12-31T01:03:21.695Z,8.92
2017-12-31T01:04:21.698Z,8.91
2017-12-31T01:05:21.692Z,8.96
2017-12-31T01:06:21.689Z,9.02
2017-12-31T01:07:21.686Z,9.02
2017-12-31T01:08:21.682Z,8.99
2017-12-31T01:09:21.677Z,8.91
2017-12-31T01:10:21.676Z,8.96
2017-12-31T01:11:21.675Z,9.01
2017-12-31T01:12:21.734Z,8.86
2017-12-31T01:13:21.666Z,8.89
2017-12-31T01:14:21.665Z,8.84
2017-12-31T01:15:21.666Z,8.91
2017-12-31T01:16:21.665Z,8.96
2017-12-31T01:17:21.655Z,9.04
2017-12-31T01:18:21.654Z,8.87
2017-12-31T01:19:21.645Z,8.99
2017-12-31T01:20:21.643Z,8.92
2017-12-31T01:21:21.638Z,8.83
2017-12-31T01:22:21.642Z,8.91
2017-12-31T01:23:21.634Z,8.91
2017-12-31T01:24:21.641Z,8.80
2017-12-31T01:25:21.634Z,8.94
2017-12-31T01:26:21.626Z,8.92
2017-12-31T01:27:21.624Z,8.87
2017-12-31T01:28:21.621Z,8.73
2017-12-31T01:29:21.614Z,8.86
2017-12-31T01:30:21.614Z,8.79
2017-12-31T01:31:21.612Z,8.68
2017-12-31T01:32:21.619Z,8.73
2017-12-31T01:33:21.605Z,8.76
2017-12-31T01:34:21.601Z,8.68
2017-12-31T01:35:21.598Z,8.71
2017-12-31T01:36:21.596Z,8.63
2017-12-31T01:37:21.591Z,8.73
2017-12-31T01:38:21.590Z,8.73
2017-12-31T01:39:21.584Z,8.77
2017-12-31T01:40:21.581Z,8.70
2017-12-31T01:41:21.581Z,8.63
2017-12-31T01:42:21.578Z,8.68
2017-12-31T01:43:21.576Z,8.73
2017-12-31T01:44:21.569Z,8.68
2017-12-31T01:45:21.566Z,8.73
2017-12-31T01:46:21.573Z,8.74
2017-12-31T01:47:21.560Z,8.61
2017-12-31T01:48:21.557Z,8.66
2017-12-31T01:49:21.555Z,8.71
2017-12-31T01:50:21.549Z,8.77
2017-12-31T01:51:21.547Z,8.77
2017-12-31T01:52:21.545Z,8.71
2017-12-31T01:53:21.540Z,8.61
2017-12-31T01:54:21.538Z,8.68
2017-12-31T01:55:21.534Z,8.63
2017-12-31T01:56:21.533Z,8.58
2017-12-31T01:57:21.528Z,8.62
2017-12-31T01:58:21.525Z,8.41
2017-12-31T01:59:21.524Z,8.53
2017-12-31T02:00:21.546Z,8.45
2017-12-31T02:01:21.523Z,8.58
2017-12-31T02:02:21.512Z,8.44
2017-12-31T02:03:21.508Z,8.41
2017-12-31T02:04:21.504Z,8.34
2017-12-31T02:05:21.502Z,8.40
2017-12-31T02:06:21.499Z,8.33
2017-12-31T02:07:21.497Z,8.38
2017-12-31T02:08:21.492Z,8.38
2017-12-31T02:09:21.489Z,8.28
2017-12-31T02:10:21.485Z,8.20
2017-12-31T02:11:21.480Z,8.34
2017-12-31T02:12:21.478Z,8.25
2017-12-31T02:13:21.474Z,8.19
2017-12-31T02:14:21.473Z,8.19
2017-12-31T02:15:21.469Z,8.25
2017-12-31T02:16:21.467Z,8.30
2017-12-31T02:17:21.458Z,8.34
2017-12-31T02:18:21.463Z,8.36
2017-12-31T02:19:21.532Z,8.37
2017-12-31T02:20:21.493Z,8.33
2017-12-31T02:21:21.446Z,8.23
2017-12-31T02:22:21.448Z,8.18
2017-12-31T02:23:21.442Z,8.12
2017-12-31T02:24:21.439Z,8.15
2017-12-31T02:25:21.434Z,8.19
2017-12-31T02:26:21.432Z,8.19
2017-12-31T02:27:21.426Z,8.10
2017-12-31T02:28:21.431Z,8.25
2017-12-31T02:29:21.417Z,8.20
2017-12-31T02:30:21.415Z,8.18
2017-12-31T02:31:21.410Z,8.19
2017-12-31T02:32:21.411Z,8.05
2017-12-31T02:33:21.405Z,8.04
2017-12-31T02:34:21.401Z,8.04
2017-12-31T02:35:21.398Z,8.01
2017-12-31T02:36:21.394Z,8.08
2017-12-31T02:37:21.389Z,8.00
2017-12-31T02:38:21.384Z,8.00
2017-12-31T02:39:21.384Z,7.98
2017-12-31T02:40:21.381Z,7.90
2017-12-31T02:41:21.374Z,7.89
2017-12-31T02:42:21.371Z,7.85
2017-12-31T02:43:21.372Z,7.82
2017-12-31T02:44:21.368Z,7.83
2017-12-31T02:45:21.362Z,7.90
2017-12-31T02:46:21.357Z,7.85
2017-12-31T02:47:21.355Z,7.92
2017-12-31T02:48:21.347Z,7.83
2017-12-31T02:49:21.350Z,7.85
2017-12-31T02:50:21.345Z,7.79
2017-12-31T02:51:21.338Z,7.83
2017-12-31T02:52:21.337Z,7.69
2017-12-31T02:53:21.335Z,7.77
2017-12-31T02:54:21.330Z,7.71
2017-12-31T02:55:21.325Z,7.63
2017-12-31T02:56:21.321Z,7.60
2017-12-31T02:57:21.326Z,7.57
2017-12-31T02:58:21.314Z,7.60
2017-12-31T02:59:21.311Z,7.53
2017-12-31T03:00:21.309Z,7.43
2017-12-31T03:01:21.302Z,7.50
2017-12-31T03:02:21.301Z,7.49
2017-12-31T03:03:21.296Z,7.42
2017-12-31T03:04:21.296Z,7.46
2017-12-31T03:05:21.295Z,7.43
2017-12-31T03:06:21.287Z,7.45
2017-12-31T03:07:21.283Z,7.50
2017-12-31T03:08:21.279Z,7.42
2017-12-31T03:09:21.276Z,7.35
2017-12-31T03:10:21.267Z,7.40
2017-12-31T03:11:21.320Z,7.28
2017-12-31T03:12:21.265Z,7.27
2017-12-31T03:13:21.270Z,7.27
2017-12-31T03:14:21.261Z,7.23
2017-12-31T03:15:21.260Z,7.23
2017-12-31T03:16:21.255Z,7.15
2017-12-31T03:17:21.246Z,7.12
2017-12-31T03:18:21.254Z,7.17
2017-12-31T03:19:21.242Z,7.23
2017-12-31T03:20:21.235Z,7.21
2017-12-31T03:21:21.236Z,7.21
2017-12-31T03:22:21.227Z,7.17
2017-12-31T03:23:21.223Z,7.17
2017-12-31T03:24:21.222Z,7.20
2017-12-31T03:25:21.214Z,7.20
2017-12-31T03:26:21.220Z,7.21
2017-12-31T03:27:21.206Z,7.15
2017-12-31T03:28:21.205Z,7.17
2017-12-31T03:29:21.197Z,7.16
2017-12-31T03:30:21.194Z,7.23
2017-12-31T03:31:21.198Z,7.21
2017-12-31T03:32:21.187Z,7.10
2017-12-31T03:33:21.184Z,7.16
2017-12-31T03:34:21.178Z,7.20
2017-12-31T03:35:21.205Z,7.17
2017-12-31T03:36:21.173Z,7.17
2017-12-31T03:37:21.166Z,7.17
2017-12-31T03:38:21.162Z,7.21
2017-12-31T03:39:21.160Z,7.12
2017-12-31T03:40:21.153Z,7.12
2017-12-31T03:41:21.151Z,7.10
2017-12-31T03:42:21.147Z,6.98
2017-12-31T03:43:21.148Z,7.12
2017-12-31T03:44:21.139Z,7.09
2017-12-31T03:45:21.138Z,7.07
2017-12-31T03:46:21.132Z,7.09
2017-12-31T03:47:21.131Z,7.07
2017-12-31T03:48:21.126Z,6.94
2017-12-31T03:49:21.112Z,6.97
2017-12-31T03:50:21.115Z,6.97
2017-12-31T03:51:21.110Z,6.99
2017-12-31T03:52:21.105Z,6.99
2017-12-31T03:53:21.105Z,6.99
2017-12-31T03:54:21.097Z,6.88
2017-12-31T03:55:21.094Z,6.88
2017-12-31T03:56:21.091Z,6.97
2017-12-31T03:57:21.083Z,6.87
2017-12-31T03:58:21.076Z,7.03
2017-12-31T03:59:21.077Z,6.97
2017-12-31T04:00:21.074Z,7.09
2017-12-31T04:01:21.090Z,7.12
2017-12-31T04:02:21.069Z,7.10
2017-12-31T04:03:21.094Z,7.03
2017-12-31T04:04:21.061Z,7.10
2017-12-31T04:05:21.054Z,6.97
2017-12-31T04:06:21.049Z,7.06
2017-12-31T04:07:21.042Z,7.03
2017-12-31T04:08:21.039Z,6.97
2017-12-31T04:09:21.059Z,7.02
2017-12-31T04:10:21.032Z,6.94
2017-12-31T04:11:21.027Z,7.06
2017-12-31T04:12:21.021Z,6.95
2017-12-31T04:13:21.019Z,6.98
2017-12-31T04:14:21.015Z,6.89
2017-12-31T04:15:21.009Z,6.88
2017-12-31T04:16:21.007Z,6.87
2017-12-31T04:17:21.000Z,6.94
2017-12-31T04:18:20.994Z,6.95
2017-12-31T04:19:20.993Z,6.97
2017-12-31T04:20:20.992Z,6.97
2017-12-31T04:21:20.985Z,6.92
2017-12-31T04:22:20.981Z,6.87
2017-12-31T04:23:20.987Z,6.89
2017-12-31T04:24:21.009Z,6.79
2017-12-31T04:25:20.971Z,6.85
2017-12-31T04:26:20.965Z,6.79
2017-12-31T04:27:20.977Z,6.77
2017-12-31T04:28:20.957Z,6.80
2017-12-31T04:29:20.951Z,6.77
2017-12-31T04:30:20.947Z,6.76
2017-12-31T04:31:20.943Z,6.73
2017-12-31T04:32:20.941Z,6.67
2017-12-31T04:33:20.937Z,6.69
2017-12-31T04:34:20.930Z,6.62
2017-12-31T04:35:20.932Z,6.76
2017-12-31T04:36:20.918Z,6.64
2017-12-31T04:37:20.916Z,6.56
2017-12-31T04:38:20.912Z,6.59
2017-12-31T04:39:20.910Z,6.62
2017-12-31T04:40:20.913Z,6.61
2017-12-31T04:41:20.901Z,6.61
2017-12-31T04:42:20.898Z,6.58
2017-12-31T04:43:20.893Z,6.61
2017-12-31T04:44:20.888Z,6.56
2017-12-31T04:45:20.883Z,6.46
2017-12-31T04:46:20.880Z,6.54
2017-12-31T04:47:20.877Z,6.54
2017-12-31T04:48:20.879Z,6.48
2017-12-31T04:49:20.874Z,6.52
2017-12-31T04:50:20.864Z,6.44
2017-12-31T04:51:20.862Z,6.38
2017-12-31T04:52:20.859Z,6.44
2017-12-31T04:53:20.850Z,6.40
2017-12-31T04:54:20.846Z,6.33
2017-12-31T04:55:20.841Z,6.37
2017-12-31T04:56:20.836Z,6.31
2017-12-31T04:57:20.834Z,6.40
2017-12-31T04:58:20.830Z,6.30
2017-12-31T04:59:20.834Z,6.30
2017-12-31T05:00:20.823Z,6.22
2017-12-31T05:01:20.819Z,6.28
2017-12-31T05:02:20.814Z,6.19
2017-12-31T05:03:20.812Z,6.21
2017-12-31T05:04:20.806Z,6.22
2017-12-31T05:05:20.801Z,6.11
2017-12-31T05:06:20.794Z,6.06
2017-12-31T05:07:20.792Z,6.18
2017-12-31T05:08:20.794Z,6.11
2017-12-31T05:09:20.784Z,6.06
2017-12-31T05:10:20.785Z,6.03
2017-12-31T05:11:20.780Z,6.09
2017-12-31T05:12:20.771Z,6.08
2017-12-31T05:13:20.762Z,6.14
2017-12-31T05:14:20.767Z,6.15
2017-12-31T05:15:20.759Z,6.14
2017-12-31T05:16:20.755Z,6.11
2017-12-31T05:17:20.750Z,6.15
2017-12-31T05:18:20.752Z,6.12
2017-12-31T05:19:20.744Z,6.06
2017-12-31T05:20:20.738Z,6.15
2017-12-31T05:21:20.731Z,6.21
2017-12-31T05:22:20.729Z,6.28
2017-12-31T05:23:20.778Z,6.21
2017-12-31T05:24:20.722Z,6.34
2017-12-31T05:25:20.716Z,6.18
2017-12-31T05:26:20.713Z,6.31
2017-12-31T05:27:20.707Z,6.19
2017-12-31T05:28:20.699Z,6.21
2017-12-31T05:29:20.699Z,6.18
2017-12-31T05:30:20.690Z,6.21
2017-12-31T05:31:20.692Z,6.22
2017-12-31T05:32:20.683Z,6.19
2017-12-31T05:33:20.680Z,6.17
2017-12-31T05:34:20.677Z,6.19
2017-12-31T05:35:20.674Z,6.18
2017-12-31T05:36:20.671Z,6.18
2017-12-31T05:37:20.665Z,6.09
2017-12-31T05:38:20.666Z,6.04
2017-12-31T05:39:20.658Z,6.01
2017-12-31T05:40:20.653Z,6.00
2017-12-31T05:41:20.650Z,6.01
2017-12-31T05:42:20.645Z,6.08
2017-12-31T05:43:20.637Z,6.06
2017-12-31T05:44:20.635Z,6.11
2017-12-31T05:45:20.629Z,6.04
2017-12-31T05:46:20.626Z,5.94
2017-12-31T05:47:20.626Z,6.03
2017-12-31T05:48:20.636Z,6.03
2017-12-31T05:49:20.613Z,6.03
2017-12-31T05:50:20.610Z,5.96
2017-12-31T05:51:20.605Z,5.91
2017-12-31T05:52:20.602Z,5.89
2017-12-31T05:53:20.598Z,5.93
2017-12-31T05:54:20.592Z,5.94
2017-12-31T05:55:20.586Z,5.89
2017-12-31T05:56:20.585Z,5.94
2017-12-31T05:57:20.579Z,5.89
2017-12-31T05:58:20.578Z,5.91
2017-12-31T05:59:20.572Z,5.89
2017-12-31T06:00:20.569Z,5.83
2017-12-31T06:01:20.564Z,5.85
2017-12-31T06:02:20.558Z,5.86
2017-12-31T06:03:20.559Z,5.89
2017-12-31T06:04:20.545Z,5.91
2017-12-31T06:05:20.846Z,5.86
2017-12-31T06:06:20.547Z,5.96
2017-12-31T06:07:20.536Z,5.97
2017-12-31T06:08:20.531Z,5.99
2017-12-31T06:09:20.522Z,5.97
2017-12-31T06:10:20.549Z,6.00
2017-12-31T06:11:20.520Z,5.97
2017-12-31T06:12:20.512Z,5.93
2017-12-31T06:13:20.510Z,5.99
2017-12-31T06:14:20.506Z,6.03
2017-12-31T06:15:20.504Z,6.00
2017-12-31T06:16:20.497Z,5.94
2017-12-31T06:17:20.494Z,5.93
2017-12-31T06:18:20.488Z,6.00
2017-12-31T06:19:20.483Z,6.00
2017-12-31T06:20:20.480Z,5.93
2017-12-31T06:21:20.477Z,5.83
2017-12-31T06:22:20.471Z,5.93
2017-12-31T06:23:20.465Z,5.93
2017-12-31T06:24:20.461Z,5.93
2017-12-31T06:25:20.456Z,5.83
2017-12-31T06:26:20.453Z,5.86
2017-12-31T06:27:20.450Z,5.91
2017-12-31T06:28:20.441Z,5.96
2017-12-31T06:29:20.437Z,5.85
2017-12-31T06:30:20.432Z,5.83
2017-12-31T06:31:20.432Z,5.94
2017-12-31T06:32:20.430Z,5.96
2017-12-31T06:33:20.422Z,5.96
2017-12-31T06:34:20.417Z,5.90
2017-12-31T06:35:20.414Z,5.94
2017-12-31T06:36:20.410Z,5.86
2017-12-31T06:37:20.404Z,5.90
2017-12-31T06:38:20.394Z,5.90
2017-12-31T06:39:20.400Z,5.81
2017-12-31T06:40:20.393Z,5.85
2017-12-31T06:41:20.392Z,5.85
2017-12-31T06:42:20.387Z,5.86
2017-12-31T06:43:20.400Z,5.81
2017-12-31T06:44:20.378Z,5.91
2017-12-31T06:45:20.368Z,5.75
2017-12-31T06:46:20.359Z,5.64
2017-12-31T06:47:20.360Z,5.65
2017-12-31T06:48:20.354Z,5.71
2017-12-31T06:49:20.352Z,5.74
2017-12-31T06:50:20.351Z,5.64
2017-12-31T06:51:20.350Z,5.54
2017-12-31T06:52:20.342Z,5.63
2017-12-31T06:53:20.336Z,5.56
2017-12-31T06:54:20.327Z,5.54
2017-12-31T06:55:20.320Z,5.71
2017-12-31T06:56:20.319Z,5.57
2017-12-31T06:57:20.314Z,5.63
2017-12-31T06:58:20.311Z,5.71
2017-12-31T06:59:20.306Z,5.72
2017-12-31T07:00:20.302Z,5.61
2017-12-31T07:01:20.305Z,5.76
2017-12-31T07:02:20.291Z,5.72
2017-12-31T07:03:20.293Z,5.68
2017-12-31T07:04:20.283Z,5.64
2017-12-31T07:05:20.278Z,5.76
2017-12-31T07:06:20.273Z,5.75
2017-12-31T07:07:20.269Z,5.75
2017-12-31T07:08:20.266Z,5.76
2017-12-31T07:09:20.260Z,5.83
2017-12-31T07:10:20.264Z,5.81
2017-12-31T07:11:20.250Z,5.86
2017-12-31T07:12:20.246Z,5.94
2017-12-31T07:13:20.240Z,5.93
2017-12-31T07:14:20.235Z,5.97
2017-12-31T07:15:20.236Z,5.99
2017-12-31T07:16:20.230Z,5.96
2017-12-31T07:17:20.223Z,5.97
2017-12-31T07:18:20.224Z,6.08
2017-12-31T07:19:20.221Z,6.15
2017-12-31T07:20:20.215Z,6.15
2017-12-31T07:21:20.208Z,6.11
2017-12-31T07:22:20.204Z,6.12
2017-12-31T07:23:20.197Z,6.06
2017-12-31T07:24:20.191Z,6.09
2017-12-31T07:25:20.190Z,6.19
2017-12-31T07:26:20.183Z,6.21
2017-12-31T07:27:20.181Z,6.22
2017-12-31T07:28:20.178Z,6.33
2017-12-31T07:29:20.171Z,6.37
2017-12-31T07:30:20.165Z,6.38
2017-12-31T07:31:20.160Z,6.27
2017-12-31T07:32:20.155Z,6.34
2017-12-31T07:33:20.153Z,6.31
2017-12-31T07:34:20.151Z,6.40
2017-12-31T07:35:20.144Z,6.43
2017-12-31T07:36:20.140Z,6.40
2017-12-31T07:37:20.136Z,6.46
2017-12-31T07:38:20.132Z,6.52
2017-12-31T07:39:20.129Z,6.55
2017-12-31T07:40:20.123Z,6.62
2017-12-31T07:41:20.120Z,6.62
2017-12-31T07:42:20.115Z,6.64
2017-12-31T07:43:20.112Z,6.70
2017-12-31T07:44:20.110Z,6.69
2017-12-31T07:45:20.104Z,6.67
2017-12-31T07:46:20.100Z,6.66
2017-12-31T07:47:20.103Z,6.67
2017-12-31T07:48:20.091Z,6.70
2017-12-31T07:49:20.089Z,6.74
2017-12-31T07:50:20.081Z,6.76
2017-12-31T07:51:20.075Z,6.79
2017-12-31T07:52:20.075Z,6.85
2017-12-31T07:53:20.092Z,6.87
2017-12-31T07:54:20.069Z,6.80
2017-12-31T07:55:20.062Z,6.77
2017-12-31T07:56:20.057Z,6.80
2017-12-31T07:57:20.054Z,6.76
2017-12-31T07:58:20.050Z,6.85
2017-12-31T07:59:20.048Z,6.94
2017-12-31T08:00:20.042Z,7.06
2017-12-31T08:01:20.042Z,7.12
2017-12-31T08:02:20.033Z,7.10
2017-12-31T08:03:20.104Z,7.21
2017-12-31T08:04:20.029Z,7.20
2017-12-31T08:05:20.023Z,7.21
2017-12-31T08:06:20.020Z,7.20
2017-12-31T08:07:20.017Z,7.31
2017-12-31T08:08:20.013Z,7.32
2017-12-31T08:09:20.007Z,7.31
2017-12-31T08:10:19.997Z,7.35
2017-12-31T08:11:20.003Z,7.43
2017-12-31T08:12:19.994Z,7.37
2017-12-31T08:13:19.991Z,7.37
2017-12-31T08:14:19.991Z,7.37
2017-12-31T08:15:19.984Z,7.40
2017-12-31T08:16:19.987Z,7.43
2017-12-31T08:17:19.976Z,7.52
2017-12-31T08:18:19.978Z,7.48
2017-12-31T08:19:19.969Z,7.46
2017-12-31T08:20:19.963Z,7.61
2017-12-31T08:21:19.966Z,7.55
2017-12-31T08:22:19.958Z,7.50
2017-12-31T08:23:19.955Z,7.53
2017-12-31T08:24:19.955Z,7.61
2017-12-31T08:25:19.947Z,7.53
2017-12-31T08:26:19.950Z,7.53
2017-12-31T08:27:19.942Z,7.58
2017-12-31T08:28:19.939Z,7.55
2017-12-31T08:29:19.933Z,7.69
2017-12-31T08:30:19.926Z,7.77
2017-12-31T08:31:19.925Z,7.77
2017-12-31T08:32:19.924Z,7.72
2017-12-31T08:33:19.919Z,7.69
2017-12-31T08:34:19.917Z,7.83
2017-12-31T08:35:19.915Z,7.72
2017-12-31T08:36:19.908Z,7.64
2017-12-31T08:37:19.902Z,7.75
2017-12-31T08:38:19.901Z,7.68
2017-12-31T08:39:19.946Z,7.71
2017-12-31T08:40:19.895Z,7.83
2017-12-31T08:41:19.888Z,7.85
2017-12-31T08:42:19.885Z,7.80
2017-12-31T08:43:19.882Z,7.83
2017-12-31T08:44:19.887Z,7.87
2017-12-31T08:45:19.887Z,7.89
2017-12-31T08:46:19.870Z,7.89
2017-12-31T08:47:19.868Z,7.90
2017-12-31T08:48:19.868Z,7.89
2017-12-31T08:49:19.859Z,7.95
2017-12-31T08:50:19.855Z,7.98
2017-12-31T08:51:19.853Z,8.01
2017-12-31T08:52:19.851Z,8.04
2017-12-31T08:53:19.848Z,7.97
2017-12-31T08:54:19.842Z,7.98
2017-12-31T08:55:19.839Z,8.01
2017-12-31T08:56:19.842Z,8.01
2017-12-31T08:57:19.831Z,8.10
2017-12-31T08:58:19.828Z,8.12
2017-12-31T08:59:19.831Z,8.18
2017-12-31T09:00:19.821Z,8.23
2017-12-31T09:01:19.820Z,8.25
2017-12-31T09:02:19.814Z,8.16
2017-12-31T09:03:19.812Z,8.19
2017-12-31T09:04:19.808Z,8.25
2017-12-31T09:05:19.806Z,8.30
2017-12-31T09:06:19.801Z,8.25
2017-12-31T09:07:19.798Z,8.26
2017-12-31T09:08:19.794Z,8.28
2017-12-31T09:09:19.792Z,8.36
2017-12-31T09:10:19.789Z,8.33
2017-12-31T09:11:19.783Z,8.38
2017-12-31T09:12:19.781Z,8.26
2017-12-31T09:13:19.773Z,8.25
2017-12-31T09:14:19.776Z,8.36
2017-12-31T09:15:19.772Z,8.38
2017-12-31T09:16:19.776Z,8.34
2017-12-31T09:17:19.762Z,8.40
2017-12-31T09:18:19.761Z,8.44
2017-12-31T09:19:19.759Z,8.41
2017-12-31T09:20:19.755Z,8.40
2017-12-31T09:21:19.753Z,8.44
2017-12-31T09:22:19.747Z,8.56
2017-12-31T09:23:19.741Z,8.40
2017-12-31T09:24:19.741Z,8.43
2017-12-31T09:25:19.741Z,8.43
2017-12-31T09:26:19.783Z,8.53
2017-12-31T09:27:19.731Z,8.48
2017-12-31T09:28:19.731Z,8.48
2017-12-31T09:29:19.726Z,8.37
2017-12-31T09:30:19.721Z,8.28
2017-12-31T09:31:19.720Z,8.20
2017-12-31T09:32:19.717Z,8.19
2017-12-31T09:33:19.711Z,8.23
2017-12-31T09:34:19.709Z,8.15
2017-12-31T09:35:19.706Z,8.16
2017-12-31T09:36:19.704Z,8.20
2017-12-31T09:37:19.699Z,8.15
2017-12-31T09:38:19.696Z,8.25
2017-12-31T09:39:19.719Z,8.11
2017-12-31T09:40:19.728Z,8.01
2017-12-31T09:41:19.685Z,8.05
2017-12-31T09:42:19.687Z,8.16
2017-12-31T09:43:19.726Z,8.16
2017-12-31T09:44:19.679Z,8.18
2017-12-31T09:45:19.673Z,8.23
2017-12-31T09:46:19.677Z,8.16
2017-12-31T09:47:19.668Z,8.08
2017-12-31T09:48:19.664Z,8.15
2017-12-31T09:49:19.659Z,8.12
2017-12-31T09:50:19.659Z,8.15
2017-12-31T09:51:19.655Z,8.08
2017-12-31T09:52:19.653Z,8.10
2017-12-31T09:53:19.647Z,8.11
2017-12-31T09:54:19.640Z,8.12
2017-12-31T09:55:19.643Z,8.08
2017-12-31T09:56:19.638Z,8.04
2017-12-31T09:57:19.633Z,8.01
2017-12-31T09:58:19.631Z,8.04
2017-12-31T09:59:19.661Z,8.02
2017-12-31T10:00:19.630Z,8.08
2017-12-31T10:01:19.619Z,8.08
2017-12-31T10:02:19.618Z,8.00
2017-12-31T10:03:19.613Z,8.18
2017-12-31T10:04:19.613Z,8.18
2017-12-31T10:05:19.612Z,8.18
2017-12-31T10:06:19.621Z,8.16
2017-12-31T10:07:19.602Z,8.16
2017-12-31T10:08:19.598Z,8.12
2017-12-31T10:09:19.594Z,8.11
2017-12-31T10:10:19.594Z,8.15
2017-12-31T10:11:19.591Z,8.23
2017-12-31T10:12:19.585Z,8.18
2017-12-31T10:13:19.583Z,8.34
2017-12-31T10:14:19.584Z,8.33
2017-12-31T10:15:19.578Z,8.19
2017-12-31T10:16:19.576Z,8.26
2017-12-31T10:17:19.572Z,8.28
2017-12-31T10:18:19.569Z,8.25
2017-12-31T10:19:19.564Z,8.25
2017-12-31T10:20:19.560Z,8.34
2017-12-31T10:21:19.569Z,8.37
2017-12-31T10:22:19.556Z,8.37
2017-12-31T10:23:19.551Z,8.34
2017-12-31T10:24:19.549Z,8.38
2017-12-31T10:25:19.544Z,8.34
2017-12-31T10:26:19.541Z,8.37
2017-12-31T10:27:19.539Z,8.43
2017-12-31T10:28:19.547Z,8.38
2017-12-31T10:29:19.531Z,8.34
2017-12-31T10:30:19.532Z,8.47
2017-12-31T10:31:19.526Z,8.43
2017-12-31T10:32:19.523Z,8.45
2017-12-31T10:33:19.520Z,8.43
2017-12-31T10:34:19.515Z,8.47
2017-12-31T10:35:19.510Z,8.43
2017-12-31T10:36:19.514Z,8.45
2017-12-31T10:37:19.507Z,8.45
2017-12-31T10:38:19.513Z,8.44
2017-12-31T10:39:19.500Z,8.50
2017-12-31T10:40:19.499Z,8.53
2017-12-31T10:41:19.495Z,8.45
2017-12-31T10:42:19.493Z,8.53
2017-12-31T10:43:19.491Z,8.65
2017-12-31T10:44:19.487Z,8.53
2017-12-31T10:45:19.482Z,8.58
2017-12-31T10:46:19.476Z,8.59
2017-12-31T10:47:19.476Z,8.59
2017-12-31T10:48:19.472Z,8.63
2017-12-31T10:49:19.472Z,8.58
2017-12-31T10:50:19.467Z,8.63
2017-12-31T10:51:19.464Z,8.71
2017-12-31T10:52:19.460Z,8.74
2017-12-31T10:53:19.457Z,8.68
2017-12-31T10:54:19.454Z,8.63
2017-12-31T10:55:19.453Z,8.62
2017-12-31T10:56:19.450Z,8.58
2017-12-31T10:57:19.450Z,8.66
2017-12-31T10:58:19.442Z,8.74
2017-12-31T10:59:19.441Z,8.61
2017-12-31T11:00:19.436Z,8.68
2017-12-31T11:01:19.433Z,8.71
2017-12-31T11:02:19.430Z,8.63
2017-12-31T11:03:19.473Z,8.70
2017-12-31T11:04:19.424Z,8.71
2017-12-31T11:05:19.422Z,8.70
2017-12-31T11:06:19.419Z,8.66
2017-12-31T11:07:19.415Z,8.77
2017-12-31T11:08:19.414Z,8.74
2017-12-31T11:09:19.409Z,8.70
2017-12-31T11:10:19.407Z,8.74
2017-12-31T11:11:19.407Z,8.71
2017-12-31T11:12:19.400Z,8.66
2017-12-31T11:13:19.396Z,8.68
2017-12-31T11:14:19.394Z,8.84
2017-12-31T11:15:19.392Z,8.84
2017-12-31T11:16:19.392Z,8.91
2017-12-31T11:17:19.385Z,8.94
2017-12-31T11:18:19.383Z,8.80
2017-12-31T11:19:19.378Z,8.87
2017-12-31T11:20:19.382Z,8.91
2017-12-31T11:21:19.374Z,9.01
2017-12-31T11:22:19.370Z,8.94
2017-12-31T11:23:19.371Z,8.95
2017-12-31T11:24:19.364Z,8.96
2017-12-31T11:25:19.359Z,8.98
2017-12-31T11:26:19.359Z,8.87
2017-12-31T11:27:19.355Z,8.83
2017-12-31T11:28:19.352Z,8.89
2017-12-31T11:29:19.349Z,8.95
2017-12-31T11:30:19.348Z,8.99
2017-12-31T11:31:19.343Z,8.96
2017-12-31T11:32:19.341Z,9.08
2017-12-31T11:33:19.338Z,9.08
2017-12-31T11:34:19.337Z,9.08
2017-12-31T11:35:19.332Z,9.08
2017-12-31T11:36:19.329Z,9.13
2017-12-31T11:37:19.325Z,9.11
2017-12-31T11:38:19.323Z,9.14
2017-12-31T11:39:19.318Z,9.14
2017-12-31T11:40:19.324Z,9.24
2017-12-31T11:41:19.314Z,9.23
2017-12-31T11:42:19.311Z,9.18
2017-12-31T11:43:19.310Z,9.35
2017-12-31T11:44:19.307Z,9.36
2017-12-31T11:45:19.308Z,9.31
2017-12-31T11:46:19.304Z,9.32
2017-12-31T11:47:19.301Z,9.40
2017-12-31T11:48:19.298Z,9.42
2017-12-31T11:49:19.293Z,9.33
2017-12-31T11:50:19.292Z,9.35
2017-12-31T11:51:19.293Z,9.39
2017-12-31T11:52:19.287Z,9.39
2017-12-31T11:53:19.283Z,9.39
2017-12-31T11:54:19.282Z,9.35
2017-12-31T11:55:19.279Z,9.35
2017-12-31T11:56:19.278Z,9.39
2017-12-31T11:57:19.280Z,9.42
2017-12-31T11:58:19.270Z,9.48
2017-12-31T11:59:19.268Z,9.48
2017-12-31T12:00:19.267Z,9.40
2017-12-31T12:01:19.266Z,9.43
2017-12-31T12:02:19.261Z,9.48
2017-12-31T12:03:19.261Z,9.56
2017-12-31T12:04:19.255Z,9.60
2017-12-31T12:05:19.251Z,9.57
2017-12-31T12:06:19.251Z,9.66
2017-12-31T12:07:19.253Z,9.69
2017-12-31T12:08:19.245Z,9.65
2017-12-31T12:09:19.242Z,9.74
2017-12-31T12:10:19.244Z,9.75
2017-12-31T12:11:19.237Z,9.86
2017-12-31T12:12:19.235Z,9.84
2017-12-31T12:13:19.234Z,9.78
2017-12-31T12:14:19.234Z,9.79
2017-12-31T12:15:19.233Z,9.83
2017-12-31T12:16:19.227Z,9.87
2017-12-31T12:17:19.228Z,10.04
2017-12-31T12:18:19.222Z,9.96
2017-12-31T12:19:19.217Z,9.96
2017-12-31T12:20:19.242Z,10.14
2017-12-31T12:21:19.213Z,10.02
2017-12-31T12:22:19.208Z,10.05
2017-12-31T12:23:19.206Z,10.02
2017-12-31T12:24:19.208Z,10.14
2017-12-31T12:25:19.204Z,10.12
2017-12-31T12:26:19.205Z,10.11
2017-12-31T12:27:19.231Z,10.25
2017-12-31T12:28:19.199Z,10.32
2017-12-31T12:29:19.196Z,10.32
2017-12-31T12:30:19.194Z,10.29
2017-12-31T12:31:19.189Z,10.30
2017-12-31T12:32:19.189Z,10.41
2017-12-31T12:33:19.186Z,10.44
2017-12-31T12:34:19.185Z,10.42
2017-12-31T12:35:19.181Z,10.44
2017-12-31T12:36:19.187Z,10.38
2017-12-31T12:37:19.176Z,10.48
2017-12-31T12:38:19.175Z,10.48
2017-12-31T12:39:19.178Z,10.48
2017-12-31T12:40:19.174Z,10.44
2017-12-31T12:41:19.170Z,10.53
2017-12-31T12:42:19.173Z,10.53
2017-12-31T12:43:19.166Z,10.53
2017-12-31T12:44:19.165Z,10.59
2017-12-31T12:45:19.160Z,10.51
2017-12-31T12:46:19.160Z,10.52
2017-12-31T12:47:19.159Z,10.47
2017-12-31T12:48:19.157Z,10.51
2017-12-31T12:49:19.155Z,10.53
2017-12-31T12:50:19.153Z,10.55
2017-12-31T12:51:19.151Z,10.53
2017-12-31T12:52:19.149Z,10.53
2017-12-31T12:53:19.146Z,10.53
2017-12-31T12:54:19.144Z,10.63
2017-12-31T12:55:19.185Z,10.53
2017-12-31T12:56:19.141Z,10.63
2017-12-31T12:57:19.140Z,10.61
2017-12-31T12:58:19.138Z,10.52
2017-12-31T12:59:19.136Z,10.63
2017-12-31T13:00:19.133Z,10.66
2017-12-31T13:01:19.132Z,10.70
2017-12-31T13:02:19.132Z,10.68
2017-12-31T13:03:19.130Z,10.68
2017-12-31T13:04:19.130Z,10.66
2017-12-31T13:05:19.127Z,10.68
2017-12-31T13:06:19.123Z,10.70
2017-12-31T13:07:19.126Z,10.81
2017-12-31T13:08:19.120Z,10.79
2017-12-31T13:09:19.118Z,10.81
2017-12-31T13:10:19.119Z,10.76
2017-12-31T13:11:19.116Z,10.86
2017-12-31T13:12:19.118Z,10.85
2017-12-31T13:13:19.114Z,10.88
2017-12-31T13:14:19.110Z,10.91
2017-12-31T13:15:19.108Z,10.88
2017-12-31T13:16:19.106Z,10.89